createdAt,value
2019-05-30T00:00:12.455Z,7.00
2019-05-30T00:02:29.671Z,7.00
2019-05-30T00:05:00.484Z,7.00
2019-05-30T00:07:31.146Z,6.90
2019-05-30T00:10:02.928Z,6.90
2019-05-30T00:12:33.652Z,6.90
2019-05-30T00:15:06.332Z,6.90
2019-05-30T00:17:36.909Z,6.90
2019-05-30T00:20:08.455Z,6.80
2019-05-30T00:22:39.092Z,6.80
2019-05-30T00:25:10.395Z,6.70
2019-05-30T00:27:42.144Z,6.70
2019-05-30T00:30:23.887Z,6.60
2019-05-30T00:32:45.359Z,6.60
2019-05-30T00:35:16.026Z,6.60
2019-05-30T00:37:46.706Z,6.60
2019-05-30T00:40:17.663Z,6.60
2019-05-30T00:42:48.825Z,6.60
2019-05-30T00:45:21.334Z,6.50
2019-05-30T00:47:52.079Z,6.50
2019-05-30T00:50:22.736Z,6.50
2019-05-30T00:52:53.953Z,6.40
2019-05-30T00:55:24.610Z,6.50
2019-05-30T00:57:56.679Z,6.40
2019-05-30T01:00:42.572Z,6.50
2019-05-30T01:03:02.824Z,6.50
2019-05-30T01:05:32.329Z,6.40
2019-05-30T01:08:03.327Z,6.50
2019-05-30T01:10:34.015Z,6.50
2019-05-30T01:13:05.219Z,6.60
2019-05-30T01:15:36.018Z,6.60
2019-05-30T01:18:07.350Z,6.60
2019-05-30T01:20:38.201Z,6.40
2019-05-30T01:23:09.061Z,6.50
2019-05-30T01:25:39.759Z,6.40
2019-05-30T01:28:10.424Z,6.40
2019-05-30T01:30:56.809Z,6.40
2019-05-30T01:33:14.499Z,6.40
2019-05-30T01:35:45.185Z,6.40
2019-05-30T01:38:15.811Z,6.50
2019-05-30T01:40:46.487Z,6.50
2019-05-30T01:43:17.198Z,6.60
2019-05-30T01:45:47.878Z,6.70
2019-05-30T01:48:18.523Z,6.80
2019-05-30T01:50:49.180Z,6.90
2019-05-30T01:53:19.874Z,6.90
2019-05-30T01:55:50.544Z,7.00
2019-05-30T01:58:21.273Z,7.00
2019-05-30T02:00:52.439Z,7.00
2019-05-30T02:03:23.099Z,7.10
2019-05-30T02:05:53.769Z,7.10
2019-05-30T02:08:24.415Z,7.10
2019-05-30T02:10:55.044Z,7.10
2019-05-30T02:13:25.873Z,7.10
2019-05-30T02:15:56.958Z,7.10
2019-05-30T02:18:27.650Z,7.10
2019-05-30T02:20:59.494Z,7.00
2019-05-30T02:23:30.293Z,7.00
2019-05-30T02:26:02.103Z,7.00
2019-05-30T02:28:32.890Z,7.00
2019-05-30T02:31:05.248Z,6.90
2019-05-30T02:33:36.242Z,6.90
2019-05-30T02:36:08.441Z,6.90
2019-05-30T02:38:39.578Z,6.90
2019-05-30T02:41:12.235Z,6.90
2019-05-30T02:43:42.712Z,6.90
2019-05-30T02:46:13.586Z,6.90
2019-05-30T02:48:58.015Z,6.90
2019-05-30T02:51:16.962Z,6.90
2019-05-30T02:53:47.599Z,7.00
2019-05-30T02:56:18.285Z,7.10
2019-05-30T02:58:48.923Z,7.00
2019-05-30T03:01:19.581Z,7.00
2019-05-30T03:03:51.063Z,7.00
2019-05-30T03:06:22.012Z,7.00
2019-05-30T03:08:53.346Z,7.00
2019-05-30T03:11:25.906Z,7.00
2019-05-30T03:13:56.572Z,6.90
2019-05-30T03:16:27.232Z,6.80
2019-05-30T03:18:58.232Z,6.90
2019-05-30T03:21:28.855Z,6.90
2019-05-30T03:23:59.510Z,6.90
2019-05-30T03:26:30.535Z,7.00
2019-05-30T03:29:02.748Z,7.00
2019-05-30T03:31:37.334Z,7.00
2019-05-30T03:34:16.526Z,7.10
2019-05-30T03:36:41.524Z,7.20
2019-05-30T03:39:14.539Z,7.30
2019-05-30T03:41:44.611Z,7.40
2019-05-30T03:44:15.955Z,7.50
2019-05-30T03:46:53.411Z,7.60
2019-05-30T03:49:29.044Z,7.70
2019-05-30T03:52:04.929Z,7.80
2019-05-30T03:54:38.624Z,7.90
2019-05-30T03:57:16.227Z,8.00
2019-05-30T03:59:58.711Z,8.20
2019-05-30T04:02:58.941Z,8.30
2019-05-30T04:05:39.535Z,8.50
2019-05-30T04:08:15.659Z,8.60
2019-05-30T04:10:49.506Z,8.70
2019-05-30T04:13:53.701Z,8.80
2019-05-30T04:16:24.392Z,8.90
2019-05-30T04:18:55.341Z,9.00
2019-05-30T04:21:26.799Z,9.10
2019-05-30T04:24:16.835Z,9.30
2019-05-30T04:26:47.595Z,9.50
2019-05-30T04:29:18.900Z,9.60
2019-05-30T04:31:49.828Z,9.70
2019-05-30T04:34:20.595Z,9.90
2019-05-30T04:36:53.423Z,10.00
2019-05-30T04:39:23.989Z,10.10
2019-05-30T04:41:54.919Z,10.30
2019-05-30T04:44:25.620Z,10.40
2019-05-30T04:46:56.659Z,10.50
2019-05-30T04:49:27.506Z,10.60
2019-05-30T04:52:00.509Z,10.90
2019-05-30T04:54:31.252Z,10.90
2019-05-30T04:57:14.770Z,11.00
2019-05-30T04:59:56.463Z,11.30
2019-05-30T05:02:38.478Z,11.60
2019-05-30T05:05:26.526Z,11.80
2019-05-30T05:07:52.951Z,12.10
2019-05-30T05:10:23.686Z,12.20
2019-05-30T05:12:54.431Z,12.20
2019-05-30T05:15:25.103Z,12.50
2019-05-30T05:17:55.776Z,12.50
2019-05-30T05:20:26.431Z,12.60
2019-05-30T05:22:57.453Z,12.50
2019-05-30T05:25:28.141Z,12.60
2019-05-30T05:27:59.962Z,12.70
2019-05-30T05:30:30.600Z,12.90
2019-05-30T05:33:01.796Z,13.00
2019-05-30T05:35:32.524Z,13.20
2019-05-30T05:38:03.432Z,13.60
2019-05-30T05:40:34.062Z,13.70
2019-05-30T05:43:05.353Z,13.50
2019-05-30T05:45:36.274Z,13.60
2019-05-30T05:48:07.128Z,13.40
2019-05-30T05:50:38.059Z,13.50
2019-05-30T05:53:08.945Z,13.70
2019-05-30T05:55:39.629Z,13.90
2019-05-30T05:58:10.477Z,14.00
2019-05-30T06:00:42.402Z,14.00
2019-05-30T06:03:13.175Z,14.20
2019-05-30T06:05:52.618Z,14.30
2019-05-30T06:08:17.257Z,14.20
2019-05-30T06:10:50.481Z,14.10
2019-05-30T06:13:21.347Z,14.20
2019-05-30T06:15:52.424Z,14.30
2019-05-30T06:18:24.205Z,14.30
2019-05-30T06:20:55.038Z,14.30
2019-05-30T06:23:25.786Z,14.40
2019-05-30T06:25:57.514Z,14.30
2019-05-30T06:28:28.333Z,14.60
2019-05-30T06:31:00.033Z,14.60
2019-05-30T06:33:30.754Z,14.70
2019-05-30T06:36:02.117Z,14.80
2019-05-30T06:38:34.083Z,14.80
2019-05-30T06:41:06.733Z,14.90
2019-05-30T06:43:37.457Z,15.10
2019-05-30T06:46:08.245Z,15.20
2019-05-30T06:48:39.469Z,15.20
2019-05-30T06:51:10.177Z,15.30
2019-05-30T06:53:41.009Z,15.40
2019-05-30T06:56:11.705Z,15.40
2019-05-30T06:58:48.768Z,15.50
2019-05-30T07:01:15.232Z,15.90
2019-05-30T07:03:46.188Z,15.80
2019-05-30T07:06:17.377Z,15.80
2019-05-30T07:08:48.302Z,15.90
2019-05-30T07:11:18.935Z,16.00
2019-05-30T07:13:49.648Z,16.50
2019-05-30T07:16:20.298Z,16.80
2019-05-30T07:18:51.045Z,17.20
2019-05-30T07:21:23.488Z,17.00
2019-05-30T07:23:54.390Z,17.00
2019-05-30T07:26:25.637Z,17.20
2019-05-30T07:28:56.572Z,17.50
2019-05-30T07:31:28.058Z,17.40
2019-05-30T07:33:59.073Z,17.40
2019-05-30T07:36:30.343Z,17.00
2019-05-30T07:39:01.165Z,17.40
2019-05-30T07:41:33.263Z,17.20
2019-05-30T07:44:04.241Z,16.90
2019-05-30T07:46:35.169Z,16.50
2019-05-30T07:49:12.502Z,16.20
2019-05-30T07:51:43.636Z,16.30
2019-05-30T07:54:14.320Z,16.70
2019-05-30T07:56:44.960Z,17.20
2019-05-30T07:59:15.596Z,16.80
2019-05-30T08:01:46.347Z,17.20
2019-05-30T08:04:17.008Z,17.40
2019-05-30T08:06:47.857Z,17.10
2019-05-30T08:09:18.581Z,17.00
2019-05-30T08:11:49.280Z,16.90
2019-05-30T08:14:20.125Z,16.90
2019-05-30T08:16:50.887Z,17.60
2019-05-30T08:19:21.614Z,17.30
2019-05-30T08:21:52.332Z,17.10
2019-05-30T08:24:23.193Z,17.30
2019-05-30T08:26:54.104Z,17.40
2019-05-30T08:29:24.804Z,17.30
2019-05-30T08:31:55.441Z,17.70
2019-05-30T08:34:26.154Z,17.70
2019-05-30T08:36:56.954Z,18.00
2019-05-30T08:39:28.889Z,17.80
2019-05-30T08:41:59.659Z,17.30
2019-05-30T08:44:31.558Z,17.10
2019-05-30T08:47:08.595Z,17.30
2019-05-30T08:49:40.397Z,17.70
2019-05-30T08:52:12.622Z,18.00
2019-05-30T08:54:44.266Z,18.00
2019-05-30T08:57:14.947Z,17.90
2019-05-30T08:59:45.802Z,17.90
2019-05-30T09:02:16.547Z,18.10
2019-05-30T09:04:47.289Z,17.70
2019-05-30T09:07:17.969Z,18.20
2019-05-30T09:09:48.642Z,18.50
2019-05-30T09:12:20.908Z,18.40
2019-05-30T09:14:51.575Z,18.50
2019-05-30T09:17:22.343Z,17.80
2019-05-30T09:19:53.417Z,17.40
2019-05-30T09:22:25.510Z,17.70
2019-05-30T09:24:56.225Z,17.70
2019-05-30T09:27:27.044Z,18.10
2019-05-30T09:29:57.778Z,18.10
2019-05-30T09:32:28.419Z,18.10
2019-05-30T09:34:59.423Z,18.30
2019-05-30T09:37:30.109Z,18.10
2019-05-30T09:40:01.701Z,18.00
2019-05-30T09:42:32.371Z,18.20
2019-05-30T09:45:03.241Z,17.80
2019-05-30T09:47:34.043Z,18.20
2019-05-30T09:50:05.602Z,18.70
2019-05-30T09:52:36.573Z,18.80
2019-05-30T09:55:09.735Z,19.00
2019-05-30T09:57:43.008Z,18.40
2019-05-30T10:00:17.748Z,18.90
2019-05-30T10:02:48.778Z,19.60
2019-05-30T10:05:24.466Z,20.10
2019-05-30T10:07:53.941Z,19.80
2019-05-30T10:10:25.045Z,19.40
2019-05-30T10:13:15.107Z,18.80
2019-05-30T10:15:50.514Z,18.70
2019-05-30T10:18:22.009Z,18.90
2019-05-30T10:20:53.635Z,19.50
2019-05-30T10:23:24.543Z,19.50
2019-05-30T10:25:55.309Z,19.90
2019-05-30T10:28:26.021Z,20.10
2019-05-30T10:30:59.205Z,19.90
2019-05-30T10:33:29.171Z,19.70
2019-05-30T10:35:59.863Z,19.30
2019-05-30T10:38:30.662Z,19.10
2019-05-30T10:41:01.324Z,18.60
2019-05-30T10:43:31.987Z,19.10
2019-05-30T10:46:03.255Z,20.00
2019-05-30T10:48:34.079Z,19.90
2019-05-30T10:51:04.790Z,19.80
2019-05-30T10:53:37.592Z,20.40
2019-05-30T10:56:08.094Z,20.10
2019-05-30T10:58:39.106Z,20.40
2019-05-30T11:01:09.896Z,20.60
2019-05-30T11:03:41.939Z,20.60
2019-05-30T11:07:01.293Z,20.80
2019-05-30T11:09:22.348Z,20.90
2019-05-30T11:11:53.056Z,21.00
2019-05-30T11:14:23.893Z,20.40
2019-05-30T11:16:55.509Z,20.10
2019-05-30T11:19:26.424Z,20.10
2019-05-30T11:21:58.163Z,20.60
2019-05-30T11:24:34.552Z,20.60
2019-05-30T11:27:05.504Z,20.80
2019-05-30T11:29:36.723Z,20.90
2019-05-30T11:32:07.909Z,21.30
2019-05-30T11:34:38.643Z,20.80
2019-05-30T11:37:18.592Z,20.70
2019-05-30T11:39:43.031Z,20.60
2019-05-30T11:42:13.800Z,20.90
2019-05-30T11:44:44.489Z,21.00
2019-05-30T11:47:18.464Z,21.40
2019-05-30T11:49:49.594Z,21.30
2019-05-30T11:52:20.520Z,21.10
2019-05-30T11:54:52.016Z,21.20
2019-05-30T11:57:22.968Z,21.60
2019-05-30T11:59:54.219Z,21.70
2019-05-30T12:02:25.096Z,21.20
2019-05-30T12:04:56.574Z,21.40
2019-05-30T12:07:36.198Z,21.50
2019-05-30T12:10:01.504Z,21.90
2019-05-30T12:12:32.197Z,21.80
2019-05-30T12:15:02.864Z,22.20
2019-05-30T12:17:33.667Z,22.60
2019-05-30T12:20:06.449Z,22.30
2019-05-30T12:22:37.760Z,22.10
2019-05-30T12:25:09.445Z,21.50
2019-05-30T12:27:41.161Z,21.00
2019-05-30T12:30:13.543Z,21.40
2019-05-30T12:32:44.319Z,22.10
2019-05-30T12:35:17.053Z,22.20
2019-05-30T12:37:54.798Z,22.40
2019-05-30T12:40:21.702Z,22.50
2019-05-30T12:42:55.529Z,22.90
2019-05-30T12:45:27.072Z,23.40
2019-05-30T12:47:57.788Z,23.80
2019-05-30T12:50:28.446Z,24.40
2019-05-30T12:53:00.478Z,24.00
2019-05-30T12:55:36.948Z,24.50
2019-05-30T12:58:07.192Z,25.00
2019-05-30T13:00:40.461Z,25.80
2019-05-30T13:03:11.237Z,26.20
2019-05-30T13:05:41.912Z,26.30
2019-05-30T13:08:21.233Z,26.50
2019-05-30T13:10:45.023Z,27.10
2019-05-30T13:13:15.768Z,26.00
2019-05-30T13:15:46.428Z,26.20
2019-05-30T13:18:17.444Z,26.50
2019-05-30T13:20:48.269Z,25.40
2019-05-30T13:23:18.971Z,25.90
2019-05-30T13:25:49.656Z,25.20
2019-05-30T13:28:20.309Z,25.50
2019-05-30T13:30:51.093Z,25.40
2019-05-30T13:33:22.045Z,25.60
2019-05-30T13:35:52.735Z,26.40
2019-05-30T13:38:26.796Z,25.70
2019-05-30T13:40:57.364Z,25.40
2019-05-30T13:43:28.347Z,26.00
2019-05-30T13:46:00.195Z,25.90
2019-05-30T13:48:30.957Z,26.40
2019-05-30T13:51:02.687Z,26.90
2019-05-30T13:53:33.487Z,26.80
2019-05-30T13:56:05.413Z,27.30
2019-05-30T13:58:36.145Z,27.70
2019-05-30T14:01:11.530Z,27.30
2019-05-30T14:03:40.292Z,26.80
2019-05-30T14:06:11.332Z,26.60
2019-05-30T14:08:43.126Z,26.60
2019-05-30T14:11:13.858Z,26.90
2019-05-30T14:13:44.573Z,25.60
2019-05-30T14:16:21.276Z,26.50
2019-05-30T14:18:56.539Z,26.70
2019-05-30T14:21:31.671Z,26.00
2019-05-30T14:24:14.303Z,26.80
2019-05-30T14:26:54.241Z,26.20
2019-05-30T14:29:33.713Z,26.30
2019-05-30T14:32:16.149Z,26.50
2019-05-30T14:34:57.390Z,27.20
2019-05-30T14:37:38.009Z,26.10
2019-05-30T14:40:11.116Z,26.30
2019-05-30T14:42:43.757Z,25.80
2019-05-30T14:45:16.917Z,26.30
2019-05-30T14:47:48.039Z,26.80
2019-05-30T14:50:19.963Z,26.60
2019-05-30T14:52:50.713Z,27.10
2019-05-30T14:55:21.606Z,27.30
2019-05-30T14:57:52.333Z,27.40
2019-05-30T15:00:24.023Z,27.70
2019-05-30T15:02:54.767Z,27.00
2019-05-30T15:05:25.443Z,27.20
2019-05-30T15:07:56.271Z,24.70
2019-05-30T15:10:27.052Z,24.50
2019-05-30T15:12:57.817Z,24.90
2019-05-30T15:15:28.731Z,25.90
2019-05-30T15:17:59.510Z,26.50
2019-05-30T15:20:30.563Z,26.80
2019-05-30T15:23:01.235Z,26.80
2019-05-30T15:25:32.439Z,26.90
2019-05-30T15:28:05.894Z,26.30
2019-05-30T15:30:36.735Z,24.50
2019-05-30T15:33:08.285Z,24.50
2019-05-30T15:35:39.006Z,24.90
2019-05-30T15:38:10.609Z,24.90
2019-05-30T15:40:41.560Z,25.10
2019-05-30T15:43:13.369Z,25.00
2019-05-30T15:45:44.391Z,25.00
2019-05-30T15:48:16.301Z,24.20
2019-05-30T15:50:47.085Z,23.80
2019-05-30T15:53:19.190Z,24.10
2019-05-30T15:55:50.069Z,24.00
2019-05-30T15:58:20.795Z,24.10
2019-05-30T16:00:51.484Z,24.20
2019-05-30T16:03:22.324Z,24.20
2019-05-30T16:05:52.996Z,24.10
2019-05-30T16:08:23.720Z,24.10
2019-05-30T16:10:54.408Z,24.10
2019-05-30T16:13:25.803Z,24.00
2019-05-30T16:15:57.244Z,23.80
2019-05-30T16:18:28.808Z,23.60
2019-05-30T16:21:00.143Z,23.20
2019-05-30T16:23:37.110Z,23.00
2019-05-30T16:26:09.702Z,23.00
2019-05-30T16:28:41.320Z,23.10
2019-05-30T16:31:13.768Z,23.00
2019-05-30T16:33:47.209Z,22.80
2019-05-30T16:36:22.576Z,22.80
2019-05-30T16:38:54.037Z,22.90
2019-05-30T16:41:28.883Z,22.90
2019-05-30T16:44:00.334Z,22.90
2019-05-30T16:46:34.417Z,22.70
2019-05-30T16:49:06.078Z,22.50
2019-05-30T16:51:39.589Z,22.60
2019-05-30T16:54:12.470Z,22.60
2019-05-30T16:56:47.318Z,22.60
2019-05-30T16:59:19.054Z,22.50
2019-05-30T17:01:57.885Z,22.40
2019-05-30T17:04:25.120Z,22.40
2019-05-30T17:06:56.566Z,22.20
2019-05-30T17:09:28.766Z,21.90
2019-05-30T17:12:00.617Z,22.00
2019-05-30T17:14:32.414Z,22.20
2019-05-30T17:17:03.240Z,22.00
2019-05-30T17:19:34.520Z,22.00
2019-05-30T17:22:05.597Z,21.90
2019-05-30T17:24:39.515Z,21.90
2019-05-30T17:27:10.123Z,21.80
2019-05-30T17:29:41.366Z,21.80
2019-05-30T17:32:12.862Z,21.80
2019-05-30T17:34:43.589Z,21.80
2019-05-30T17:37:14.464Z,21.80
2019-05-30T17:39:45.433Z,21.80
2019-05-30T17:42:16.318Z,21.70
2019-05-30T17:44:47.186Z,21.60
2019-05-30T17:47:21.406Z,21.40
2019-05-30T17:49:57.462Z,21.40
2019-05-30T17:52:33.789Z,21.30
2019-05-30T17:55:06.039Z,21.20
2019-05-30T17:57:39.794Z,21.10
2019-05-30T18:00:16.473Z,21.00
2019-05-30T18:02:50.024Z,20.90
2019-05-30T18:05:24.609Z,20.80
2019-05-30T18:07:58.879Z,20.70
2019-05-30T18:10:32.173Z,20.50
2019-05-30T18:13:06.720Z,20.50
2019-05-30T18:15:39.712Z,20.40
2019-05-30T18:18:10.767Z,20.30
2019-05-30T18:20:48.566Z,20.30
2019-05-30T18:23:15.509Z,20.20
2019-05-30T18:25:46.709Z,20.20
2019-05-30T18:28:18.589Z,20.10
2019-05-30T18:30:50.164Z,20.10
2019-05-30T18:33:22.119Z,20.10
2019-05-30T18:36:00.214Z,20.00
2019-05-30T18:38:32.702Z,20.00
2019-05-30T18:41:11.392Z,19.90
2019-05-30T18:43:36.640Z,19.90
2019-05-30T18:46:07.919Z,19.70
2019-05-30T18:48:39.464Z,19.70
2019-05-30T18:51:11.012Z,19.60
2019-05-30T18:53:42.860Z,19.50
2019-05-30T18:56:14.444Z,19.40
2019-05-30T18:58:45.969Z,19.30
2019-05-30T19:01:17.188Z,19.10
2019-05-30T19:03:49.760Z,19.00
2019-05-30T19:06:21.037Z,19.00
2019-05-30T19:08:52.299Z,18.90
2019-05-30T19:11:29.643Z,18.80
2019-05-30T19:13:57.908Z,18.80
2019-05-30T19:16:32.416Z,18.80
2019-05-30T19:19:13.050Z,18.80
2019-05-30T19:21:50.064Z,18.70
2019-05-30T19:24:28.488Z,18.70
2019-05-30T19:27:00.557Z,18.70
2019-05-30T19:29:32.875Z,18.60
2019-05-30T19:32:04.926Z,18.60
2019-05-30T19:34:37.010Z,18.60
2019-05-30T19:37:11.984Z,18.60
2019-05-30T19:39:44.163Z,18.60
2019-05-30T19:42:20.658Z,18.60
2019-05-30T19:44:55.059Z,18.50
2019-05-30T19:47:28.635Z,18.50
2019-05-30T19:50:02.523Z,18.40
2019-05-30T19:52:35.088Z,18.40
2019-05-30T19:55:07.098Z,18.40
2019-05-30T19:57:47.821Z,18.40
2019-05-30T20:00:24.632Z,18.30
2019-05-30T20:03:00.000Z,18.30
2019-05-30T20:05:36.657Z,18.40
2019-05-30T20:08:14.410Z,18.40
2019-05-30T20:10:49.006Z,18.40
2019-05-30T20:13:27.041Z,18.40
2019-05-30T20:16:00.712Z,18.30
2019-05-30T20:18:37.696Z,18.30
2019-05-30T20:21:13.023Z,18.30
2019-05-30T20:23:56.482Z,18.20
2019-05-30T20:26:27.152Z,18.20
2019-05-30T20:29:00.926Z,18.20
2019-05-30T20:31:39.382Z,18.30
2019-05-30T20:34:14.414Z,18.20
2019-05-30T20:36:51.431Z,18.30
2019-05-30T20:39:27.653Z,18.30
2019-05-30T20:42:15.924Z,18.30
2019-05-30T20:44:47.098Z,18.30
2019-05-30T20:47:24.506Z,18.30
2019-05-30T20:50:02.114Z,18.30
2019-05-30T20:52:43.123Z,18.30
2019-05-30T20:55:21.853Z,18.30
2019-05-30T20:57:54.011Z,18.30
2019-05-30T21:00:43.882Z,18.20
2019-05-30T21:03:19.351Z,18.10
2019-05-30T21:05:56.033Z,18.00
2019-05-30T21:08:29.476Z,18.00
2019-05-30T21:13:40.235Z,17.90
2019-05-30T21:16:17.166Z,17.90
2019-05-30T21:18:54.734Z,17.90
2019-05-30T21:21:28.294Z,17.80
2019-05-30T21:24:01.346Z,17.80
2019-05-30T21:26:36.671Z,17.80
2019-05-30T21:29:08.439Z,17.80
2019-05-30T21:31:41.309Z,17.80
2019-05-30T21:34:13.143Z,17.70
2019-05-30T21:36:46.005Z,17.70
2019-05-30T21:39:17.791Z,17.70
2019-05-30T21:41:49.889Z,17.60
2019-05-30T21:44:21.286Z,17.70
2019-05-30T21:46:55.386Z,17.60
2019-05-30T21:49:27.323Z,17.60
2019-05-30T21:51:57.983Z,17.60
2019-05-30T21:54:28.738Z,17.50
2019-05-30T21:56:59.521Z,17.50
2019-05-30T21:59:30.256Z,17.50
2019-05-30T22:02:00.919Z,17.50
2019-05-30T22:04:31.611Z,17.50
2019-05-30T22:07:02.596Z,17.50
2019-05-30T22:09:33.306Z,17.50
2019-05-30T22:12:04.038Z,17.40
2019-05-30T22:14:34.686Z,17.40
2019-05-30T22:17:17.545Z,17.50
2019-05-30T22:19:50.032Z,17.40
2019-05-30T22:22:20.822Z,17.40
2019-05-30T22:24:52.361Z,17.40
2019-05-30T22:27:23.381Z,17.40
2019-05-30T22:29:54.030Z,17.30
2019-05-30T22:32:24.724Z,17.30
2019-05-30T22:34:55.365Z,17.20
2019-05-30T22:37:26.034Z,17.20
2019-05-30T22:39:56.819Z,17.20
2019-05-30T22:42:27.511Z,17.10
2019-05-30T22:44:58.212Z,17.00
2019-05-30T22:47:28.872Z,17.00
2019-05-30T22:49:59.553Z,16.90
2019-05-30T22:52:30.227Z,16.90
2019-05-30T22:55:01.017Z,16.90
2019-05-30T22:57:31.658Z,16.80
2019-05-30T23:00:02.418Z,16.80
2019-05-30T23:02:33.098Z,16.80
2019-05-30T23:05:03.827Z,16.80
2019-05-30T23:07:34.557Z,16.70
2019-05-30T23:10:06.380Z,16.80
2019-05-30T23:12:37.297Z,16.80
2019-05-30T23:15:08.151Z,16.80
2019-05-30T23:17:38.857Z,16.70
2019-05-30T23:20:09.819Z,16.70
2019-05-30T23:22:40.460Z,16.70
2019-05-30T23:25:12.018Z,16.70
2019-05-30T23:27:43.100Z,16.60
2019-05-30T23:30:13.863Z,16.60
2019-05-30T23:32:44.528Z,16.60
2019-05-30T23:35:15.235Z,16.50
2019-05-30T23:37:45.899Z,16.50
2019-05-30T23:40:16.767Z,16.50
2019-05-30T23:42:47.426Z,16.50
2019-05-30T23:45:18.092Z,16.50
2019-05-30T23:47:49.470Z,16.50
2019-05-30T23:50:20.494Z,16.50
2019-05-30T23:52:52.079Z,16.50
2019-05-30T23:55:22.788Z,16.40
2019-05-30T23:57:54.618Z,16.40
